Terminal Aerodrome Forecast
Issued by NWS

Home | Current Version | Previous Version | Graphics & Text | Print | Product List | Glossary On
Versions: 1 2 3 4 5 6 7 8 9 10 11 12 13 14 15 16 17 18 19 20 21 22 23 24 25 26
000
FTUS41 KCLE 310539
TAFFDY
TAF
KFDY 310539Z 3106/0106 24004KT 6SM BR SCT035 OVC080
      TEMPO 3106/3109 3SM BR FEW004
     FM311000 26006KT 5SM BR VCSH SCT019 OVC025
     FM311900 32005KT P6SM VCTS SCT030CB OVC035
     FM312300 34010KT P6SM OVC035
     FM010400 02005KT P6SM SCT035=

USA.gov is the U.S. government's official web portal to all federal, state and local government web resources and services.